Terminal Aerodrome Forecast
Issued by NWS

Home | Current Version | Previous Version | Text Only | Print | Product List | Glossary On
Versions: 1 2 3 4 5 6 7 8 9 10 11 12 13 14 15 16 17 18 19
000
FTUS43 KDLH 172300
TAFBRD
TAF
KBRD 172331Z 1800/1824 34014G23KT P6SM BKN035
     FM180200 35012KT P6SM OVC025
     FM180500 35011KT P6SM OVC018
     FM181200 35006KT P6SM SCT015
     FM181600 22008KT P6SM SCT045=

USA.gov is the U.S. government's official web portal to all federal, state and local government web resources and services.